Saturday, November 18, 2017, 10:00 PM EST
Back to Local

KPVD, Providence Green State Airport

Location: Warwick, RI, United States Lat: 41.733
Local Time: 10:00 PM EST ( 3:00 GMT) Lon: -71.433
Time Zone: US/Eastern Elev: 55 ft

Show me the last for .
Show Decoded

2017-11-18 20:51 METAR KPVD 190151Z 21006KT 6SM -RA BR BKN060 BKN075 BKN090 OVC130 11/11 A2959
                 RMK AO2 SLP020 P0003 T01110106 =
2017-11-18 19:51 METAR KPVD 190051Z 19012KT 7SM -RA FEW075 OVC090 12/09 A2962 RMK AO2 SLP032
                 P0001 T01170089 =
2017-11-18 18:51 METAR KPVD 182351Z 20009KT 10SM -RA FEW030 SCT070 OVC090 12/09 A2966 RMK AO2
                 RAB2256 SLP042 P0000 60000 T01220089 10122 20078 58020 =
2017-11-18 17:51 METAR KPVD 182251Z 18009KT 10SM FEW030 OVC090 12/08 A2968 RMK AO2 SLP049
                 T01170083 =
2017-11-18 16:51 METAR KPVD 182151Z 19011KT 10SM FEW040 BKN090 OVC130 12/07 A2970 RMK AO2 SLP057
                 T01170067 =
2017-11-18 15:51 METAR KPVD 182051Z 16003KT 10SM FEW040 BKN140 BKN250 09/04 A2972 RMK AO2 SLP062
                 T00940044 58042 =
2017-11-18 14:51 METAR KPVD 181951Z COR 15003KT 10SM FEW040 BKN140 BKN250 09/03 A2976 RMK AO2
                 SLP079 T00890033 =
2017-11-18 13:51 METAR KPVD 181851Z 14004KT 10SM FEW040 BKN140 BKN170 OVC300 08/01 A2981 RMK AO2
                 SLP093 VIRGA S-W-NW T00830006 =
2017-11-18 12:51 METAR KPVD 181751Z 19007KT 10SM BKN140 BKN170 OVC300 08/M01 A2984 RMK AO2 SLP104
                 VIRGA N-E-S T00781006 10078 21033 57040 =
2017-11-18 11:51 METAR KPVD 181651Z COR 18007KT 10SM BKN140 BKN170 OVC230 07/M02 A2987 RMK AO2
                 SLP116 VIRGA ALQDS T00721022 =
2017-11-18 10:51 METAR KPVD 181551Z COR 18005KT 10SM SCT150 SCT180 BKN230 06/M03 A2992 RMK AO2
                 SLP133 VIRGA S-W-NW T00561028 =
2017-11-18 09:51 METAR KPVD 181451Z 00000KT 10SM FEW200 BKN250 BKN300 04/M05 A2996 RMK AO2 SLP145
                 T00441050 58013 =
2017-11-18 08:51 METAR KPVD 181351Z VRB03KT 10SM SCT250 02/M06 A2997 RMK AO2 SLP149 T00221061 =
2017-11-18 07:51 METAR KPVD 181251Z 00000KT 10SM FEW250 00/M07 A2999 RMK AO2 SLP157 T00001072 =
2017-11-18 06:51 METAR KPVD 181151Z 25005KT 10SM FEW250 M03/M07 A2999 RMK AO2 SLP157 T10281072
                 11011 21039 50002 =
2017-11-18 05:51 METAR KPVD 181051Z 28005KT 10SM CLR M03/M07 A3000 RMK AO2 SLP158 T10281072 =
2017-11-18 04:51 METAR KPVD 180951Z AUTO 27007KT 10SM CLR M02/M07 A3001 RMK AO2 SLP161 T10221067
                 =
2017-11-18 03:51 METAR KPVD 180851Z AUTO 29006KT 10SM CLR M03/M07 A2999 RMK AO2 SLP155 T10281067
                 58016 =
2017-11-18 02:51 METAR KPVD 180751Z AUTO 00000KT 10SM CLR M03/M06 A3002 RMK AO2 SLP165 T10281061
                 =
2017-11-18 01:51 METAR KPVD 180651Z AUTO 19003KT 10SM CLR M03/M06 A3003 RMK AO2 SLP169 T10281061
                 =
2017-11-18 00:51 METAR KPVD 180551Z AUTO 23004KT 10SM CLR M02/M07 A3004 RMK AO2 SLP171 T10221067
                 10033 21028 53013 =
2017-11-17 23:51 METAR KPVD 180451Z COR 00000KT 10SM FEW200 M02/M06 A3001 RMK AO2 SLP163 LAST
                 T10171061 400891028 =

Support USWX by starting your Amazon purchase here.